LAN weather

Capital City Airport
Lansing, Michigan, United States

Public forecast

Using degrees Fahrenheit for public forecast. Weather courtesy of forecast.io.

Current aviation weather report (METAR) for Capital City Airport

Retrieved 2019/12/09 12:43 UTC (0 seconds ago):

KLAN 091243Z 15008KT 4SM -RA BR FEW013 BKN028 OVC042 08/07 A2963

Aviation forecast (TAF) for Capital City Airport

Retrieved 2019/12/09 12:45 UTC (0 seconds ago):

TAF KLAN 091143Z 0912/1012 16008KT 5SM -RA BR OVC018 FM091500 18007KT 3SM -RA BR OVC008 FM091800 23011KT 3SM -RA BR OVC008 FM100100 25014G22KT 4SM -RA BR OVC008 FM100500 27017G25KT P6SM -SHSN OVC012